207-й км

Карта отелей и гостиниц, располагающихся рядом с аэропортом 207-й км :

207-й км Ханты-Мансийский автономный округ - Югра 63° 5' 0.3012" N, 60° 25' 53.1012" E
207-й км Ханты-Мансийский автономный округ - Югра 63° 5' 0.3012" N, 60° 25' 53.1012" E
Код аэродрома ИКАО
HA7P
Код аэродрома RU
ХА7П
Координаты
N63.08342° E060.43142°
Превышение над уровнем моря
185
Основная полоса
Курс магнитный
Длина основной ВПП
Ширина основной ВПП
Покрытие основной ВПП
Твёрдое
Освещение ВПП
Нет
Тип: 
Вертодром
Класс аэродрома: 
Принадлежность: 
ГА
Статус: 
Действующий
Сайт: 
E-mail аэродрома: 
Страна: 
Россия
Регион: 
Ханты-Мансийский автономный округ - Югра
Город: 
Дополнительная информация: 


Найти трансфер

С помощью этой формы Вы можете найти трансфер из аэропорта 207-й км в город, аэропорт или вокзал:

Погода в аэропортах:

Авиационная погода в аэропорту Имени Германа Титова

Регион: 
Погода METAR: 
UNBB 290730Z 31007MPS 9999 -RA BKN040 16/13 Q1013 R24/190058 NOSIG RMK QFE738
Время наблюдения
2022-05-29T07:30:00Z
Температура C
16.0
Точка росы
13.0
Направление ветра
310
Скорость ветра (узлы)
14
Метео видимость
6.21
Облачность
BKN
Нижняя граница облачности (футы)
4000
Явления погоды
-RA
Условия полета
VFR
Аэропорт подробнее: 
BKN – значительная (рассеянная, разорванная) облачность;
-RA - слабый дождь;

Авиационная погода в Каяани

Регион: 
Погода METAR: 
EFKI 290720Z AUTO 04005KT 350V080 9999 -SHRA SCT009 OVC050 //////CB 12/11 Q1004
Время наблюдения
2022-05-29T07:20:00Z
Температура C
12.0
Точка росы
11.0
Направление ветра
40
Скорость ветра (узлы)
5
Метео видимость
6.21
Облачность
SCT
OVC
Нижняя граница облачности (футы)
900
5000
Явления погоды
-SHRA
Условия полета
VFR
SCT – разбросанная отдельная облачность; OVC – сплошная облачность;
-SHRA - слабый ливневой дождь;

Авиационная погода в Ивало

Регион: 
Погода METAR: 
EFIV 290720Z AUTO 02010KT 9999 -RA BKN017 08/06 Q1012
Время наблюдения
2022-05-29T07:20:00Z
Температура C
8.0
Точка росы
6.0
Направление ветра
20
Скорость ветра (узлы)
10
Метео видимость
6.21
Облачность
BKN
Нижняя граница облачности (футы)
1700
Явления погоды
-RA
Условия полета
MVFR
BKN – значительная (рассеянная, разорванная) облачность;
-RA - слабый дождь;

Авиационная погода в Игнатьево

Регион: 
Погода METAR: 
UHBB 290730Z 09003MPS 9999 -SHRA BKN026CB 14/12 Q0998 R36/090060 NOSIG RMK QFE731/0975
Время наблюдения
2022-05-29T07:30:00Z
Температура C
14.0
Точка росы
12.0
Направление ветра
90
Скорость ветра (узлы)
6
Метео видимость
6.21
Облачность
BKN
Нижняя граница облачности (футы)
2600
Явления погоды
-SHRA
Условия полета
MVFR
Аэропорт подробнее: 
BKN – значительная (рассеянная, разорванная) облачность;
-SHRA - слабый ливневой дождь;